Tiempo atmosférico en la estación meteorológica de Agaete, Las Palmas (5 m.)



Fecha
DESCASC
Temp. máxima en grados centígrados (hora)
DESCASC
Temp. mínima en grados centígrados (hora)
DESCASC
Temp. media en grados centígrados
DESCASC
Racha de viento máxima en m/sg (hora)
DESCASC
Velocidad máxima media en intervalos de 10 minutos(hora)
DESCASC
Precipitaciones diarias en mm
DESCASC
Precipitaciones de 00:00 a 06:00 en mm
DESCASC
Precipitaciones de 06:00 a 12:00 en mm
DESCASC
Precipitaciones de 12:00 a 18:00 en mm
DESCASC
Precipitaciones de 18:00 a 24:00 en mm
DESCASC
24-05-2020 30.2 (10:20) 21.9 (22:30) 26.1 16.67 (05:30) 9.44 (09:10) 0 0 0 0 0
23-05-2020 28.5 (23:40) 19.9 (03:00) 24.2 18.89 (13:00) 12.78 (13:10) 0 0 0 0 0
22-05-2020 23.8 (16:30) 18.5 (06:00) 21.1 23.33 (23:10) 15 (23:10) 0 0 0 0 0
21-05-2020 22.6 (00:30) 18.8 (00:00) 20.7 15.28 (13:40) 8.61 (10:50) 0 0 0 0 0
20-05-2020 25.5 (16:00) 19.4 (00:00) 22.4 14.44 (11:00) 8.61 (12:50) 0 0 0 0 0
19-05-2020 21.5 (12:00) 19.5 (00:00) 20.5 11.11 (13:10) 6.94 (12:20) 0 0 0 0 0
18-05-2020 22.5 (13:40) 18.9 (00:00) 20.7 11.11 (16:20) 7.22 (15:10) 0 0 0 0 0
17-05-2020 21.4 (19:10) 18.6 (00:00) 20 10.56 (18:40) 6.11 (15:50) 0 0 0 0 0
16-05-2020 21.8 (16:00) 18.4 (00:00) 20.1 14.17 (12:10) 6.94 (16:30) 0 0 0 0 0
15-05-2020 21.5 (15:20) 18.2 (00:00) 19.9 10.56 (01:10) 8.06 (00:20) 0 0 0 0 0
14-05-2020 23.4 (12:00) 18.8 (00:00) 21.1 10.83 (18:10) 8.06 (23:50) 0 0 0 0 0
13-05-2020 25.1 (14:50) 19.4 (00:00) 22.3 12.5 (18:10) 8.61 (15:40) 0 0 0 0 0
12-05-2020 -- (--) -- (--) -- -- (--) -- (--) -- 0 -- 0 0
11-05-2020 25.5 (17:30) 20 (00:00) 22.8 9.44 (16:10) 7.5 (16:10) 0 0 0 0 0
10-05-2020 23.1 (16:30) 19.4 (00:00) 21.3 9.72 (17:50) 7.78 (14:40) 0 0 0 0 0
09-05-2020 23.3 (19:30) 19.1 (00:00) 21.2 12.5 (13:10) 7.78 (13:10) 0 0 0 0 0
08-05-2020 22.9 (15:50) 18.4 (00:00) 20.6 11.11 (13:10) 7.5 (13:10) 0 0 0 0 0
07-05-2020 22.8 (17:20) 18.7 (00:00) 20.8 10.56 (15:10) 7.22 (12:30) 0 0 0 0 0
06-05-2020 23.4 (16:10) 19 (00:00) 21.2 11.94 (04:10) 6.94 (12:10) 0 0 0 0 0
05-05-2020 23.4 (14:00) 18.4 (00:00) 20.9 11.67 (14:30) 7.5 (14:40) 0 0 0 0 0
04-05-2020 23.6 (14:40) 19.6 (00:00) 21.6 9.72 (11:10) 7.22 (15:40) 0 0 0 0 0
03-05-2020 22 (11:10) 17.5 (00:00) 19.8 10.83 (14:10) 8.06 (13:30) 0 0 0 0 0
02-05-2020 23.2 (16:40) 17.8 (00:00) 20.5 15 (03:40) 7.78 (01:30) 0 0 0 0 0
01-05-2020 23.4 (14:30) 18.9 (00:00) 21.1 17.22 (12:10) 9.17 (10:40) 0 0 0 0 0
30-04-2020 22.8 (15:00) 18.1 (00:00) 20.4 15.83 (14:10) 9.44 (16:00) 0 0 0 0 0
29-04-2020 21.9 (13:40) 18.5 (00:00) 20.2 13.89 (15:30) 8.33 (15:00) 0 0 0 0 0
28-04-2020 22.3 (12:50) 18.1 (00:00) 20.2 10.83 (16:10) 8.06 (15:00) 0 0 0 0 0
27-04-2020 23.3 (09:50) 17.4 (00:00) 20.3 6.94 (19:20) 5.83 (19:20) 0 0 0 0 0
26-04-2020 21.7 (17:00) 16.6 (00:00) 19.2 8.89 (13:10) 6.39 (10:50) 0 0 0 0 0

Gráficas

Temp. máximas Temp. mínimas Temp. medias Precipitaciones Rachas de viento máximas Velocidades máximas media en intervalos de 10 minutos

Datos horarios

Fecha y hora oficial Temperatura (ºC) Velocidad del viento (km/h) Dirección del viento Racha (km/h) Dirección de racha Precipitación (mm) Presión (hPa) Tendencia (hPa) Humedad (%)
2020-05-25 23:00:00 21.7 6 Oeste 19 Norte 0 -- -- 71
2020-05-25 22:00:00 21.7 8 Sudoeste 24 Norte 0 -- -- 72
2020-05-25 21:00:00 22.3 6 Norte 33 Norte 0 -- -- 71
2020-05-25 20:00:00 22.1 15 Nordeste 35 Nordeste 0 -- -- 75
2020-05-25 19:00:00 22.8 21 Norte 46 Norte 0 -- -- 74
2020-05-25 18:00:00 22.8 31 Norte 43 Norte 0 -- -- 73
2020-05-25 17:00:00 25.4 6 Sudeste 18 Sudeste 0 -- -- 65
2020-05-25 16:00:00 26.3 12 Sur 15 Sur 0 -- -- 64
2020-05-25 15:00:00 25.5 6 Sudeste 24 Nordeste 0 -- -- 64
2020-05-25 14:00:00 26.9 11 Nordeste 27 Nordeste 0 -- -- 56
2020-05-25 13:00:00 24.9 13 Norte 24 Norte 0 -- -- 63
2020-05-25 12:00:00 25 13 Nordeste 23 Nordeste 0 -- -- 62
2020-05-25 11:00:00 24.2 12 Nordeste 26 Nordeste 0 -- -- 64
2020-05-25 10:00:00 23.1 9 Nordeste 24 Sudeste 0 -- -- 68
2020-05-25 09:00:00 22.4 9 Sudoeste 35 Sudeste 0 -- -- 68
2020-05-25 08:00:00 22.2 6 Sur 28 Sudeste 0 -- -- 66
2020-05-25 07:00:00 21.7 5 Nordeste 18 Nordeste 0 -- -- 62
2020-05-25 06:00:00 22.3 9 Nordeste 39 Nordeste 0 -- -- 58
2020-05-25 05:00:00 20.5 10 Sudeste 23 Nordeste 0 -- -- 73
2020-05-25 04:00:00 20.6 15 Este 44 Este 0 -- -- 74
2020-05-25 03:00:00 21.1 10 Sudeste 32 Este 0 -- -- 71
2020-05-25 02:00:00 21 6 Sudeste 33 Este 0 -- -- 72
2020-05-25 01:00:00 21.5 7 Oeste 19 Norte 0 -- -- 71
2020-05-25 00:00:00 21.9 5 Sur 17 Sur 0 -- -- 72
2020-05-24 23:00:00 22 5 Sur 30 Este 0 -- -- 72
2020-05-24 22:00:00 22 17 Sudeste 27 Sudeste 0 -- -- 73
2020-05-24 21:00:00 23.2 10 Sudeste 26 Sudeste 0 -- -- 68
2020-05-24 20:00:00 24.1 11 Este 28 Este 0 -- -- 68
2020-05-24 19:00:00 25 5 Sudeste 28 Norte 0 -- -- 68
2020-05-24 18:00:00 24.6 12 Norte 30 Norte 0 -- -- 68
2020-05-24 17:00:00 24.5 12 Sur 17 Sur 0 -- -- 67
2020-05-24 16:00:00 25.6 10 Sur 17 Sudeste 0 -- -- 61
2020-05-24 15:00:00 25.8 12 Sur 18 Sur 0 -- -- 60
2020-05-24 14:00:00 26 8 Sur 23 Sur 0 -- -- 59
2020-05-24 13:00:00 26.7 11 Sur 24 Sur 0 -- -- 53
2020-05-24 12:00:00 25.7 12 Sur 54 Nordeste 0 -- -- 54
2020-05-24 11:00:00 29.9 31 Nordeste 49 Nordeste 0 -- -- 33
2020-05-24 10:00:00 30 33 Nordeste 55 Nordeste 0 -- -- 27
2020-05-24 09:00:00 29.1 32 Nordeste 52 Nordeste 0 -- -- 25
2020-05-24 08:00:00 28.7 22 Nordeste 49 Nordeste 0 -- -- 21
2020-05-24 07:00:00 28.8 22 Nordeste 59 Nordeste 0 -- -- 21
2020-05-24 06:00:00 29.5 28 Este 60 Nordeste 0 -- -- 21
2020-05-24 05:00:00 29.6 27 Este 59 Este 0 -- -- 21
2020-05-24 04:00:00 29.7 24 Nordeste 54 Nordeste 0 -- -- 21
2020-05-24 03:00:00 29.7 26 Nordeste 53 Este 0 -- -- 22
2020-05-24 02:00:00 26.8 26 Nordeste 56 Este 0 -- -- 35
2020-05-24 01:00:00 27.3 26 Nordeste 55 Nordeste 0 -- -- 34
2020-05-24 00:00:00 26.8 23 Nordeste 47 Nordeste 0 -- -- 38
2020-05-23 23:00:00 27.7 22 Nordeste 45 Nordeste 0 -- -- 34
2020-05-23 22:00:00 24.8 11 Oeste 31 Oeste 0 -- -- 53
2020-05-23 21:00:00 23.5 12 Oeste 34 Este 0 -- -- 62
2020-05-23 20:00:00 24 9 Nordeste 51 Este 0 -- -- 65
2020-05-23 19:00:00 24.1 19 Nordeste 49 Este 0 -- -- 66
2020-05-23 18:00:00 24.8 17 Sur 53 Nordeste 0 -- -- 64
2020-05-23 17:00:00 25.8 30 Nordeste 64 Nordeste 0 -- -- 60
2020-05-23 16:00:00 25.6 39 Nordeste 63 Nordeste 0 -- -- 61
2020-05-23 15:00:00 24.8 38 Nordeste 65 Nordeste 0 -- -- 63
2020-05-23 14:00:00 25.4 40 Nordeste 66 Nordeste 0 -- -- 60
2020-05-23 13:00:00 25.3 44 Nordeste 68 Nordeste 0 -- -- 58
2020-05-23 12:00:00 25.4 40 Nordeste 64 Nordeste 0 -- -- 55
2020-05-23 11:00:00 25.7 37 Nordeste 60 Nordeste 0 -- -- 51
2020-05-23 10:00:00 27.4 30 Nordeste 50 Nordeste 0 -- -- 39
2020-05-23 09:00:00 24.5 28 Nordeste 56 Nordeste 0 -- -- 51
2020-05-23 08:00:00 21.9 31 Nordeste 60 Nordeste 0 -- -- 62
2020-05-23 07:00:00 20.5 33 Nordeste 64 Nordeste 0 -- -- 70
2020-05-23 06:00:00 21.1 27 Nordeste 62 Nordeste 0 -- -- 67
2020-05-23 05:00:00 20.7 32 Nordeste 57 Norte 0 -- -- 69
2020-05-23 04:00:00 20.4 30 Norte 57 Norte 0 -- -- 71
2020-05-23 03:00:00 19.9 40 Norte 59 Norte 0 -- -- 76
2020-05-23 02:00:00 20.3 40 Norte 63 Norte 0 -- -- 72
2020-05-23 01:00:00 20.2 35 Norte 56 Norte 0 -- -- 74
2020-05-23 00:00:00 20.3 41 Norte 84 Norte 0 -- -- 75
2020-05-22 23:00:00 20.4 50 Norte 66 Norte 0 -- -- 73
2020-05-22 22:00:00 20.5 41 Norte 72 Norte 0 -- -- 74
2020-05-22 21:00:00 20.5 44 Norte 63 Norte 0 -- -- 72
2020-05-22 20:00:00 21.9 33 Norte 58 Nordeste 0 -- -- 61
2020-05-22 19:00:00 22.5 35 Norte 59 Norte 0 -- -- 61
2020-05-22 18:00:00 22.5 36 Norte 62 Nordeste 0 -- -- 64
2020-05-22 17:00:00 23.5 35 Norte 62 Nordeste 0 -- -- 59
2020-05-22 16:00:00 23.3 37 Norte 66 Norte 0 -- -- 58
2020-05-22 15:00:00 23.2 35 Norte 63 Nordeste 0 -- -- 59
2020-05-22 14:00:00 22.8 36 Norte 63 Norte 0 -- -- 59
2020-05-22 13:00:00 22 36 Norte 58 Nordeste 0 -- -- 60
2020-05-22 12:00:00 21.6 29 Norte 53 Norte 0 -- -- 62
2020-05-22 11:00:00 20.8 31 Norte 53 Norte 0 -- -- 66
2020-05-22 10:00:00 20.4 30 Norte 48 Norte 0 -- -- 65
2020-05-22 09:00:00 19.7 27 Norte 44 Norte 0 -- -- 66
2020-05-22 08:00:00 18.9 29 Norte 45 Norte 0 -- -- 71
2020-05-22 07:00:00 18.6 27 Nordeste 50 Nordeste 0 -- -- 72
2020-05-22 06:00:00 18.5 30 Norte 49 Nordeste 0 -- -- 72
2020-05-22 05:00:00 18.6 30 Norte 51 Nordeste 0 -- -- 71
2020-05-22 04:00:00 18.8 35 Nordeste 57 Norte 0 -- -- 70
2020-05-22 03:00:00 18.9 32 Nordeste 57 Nordeste 0 -- -- 70
2020-05-22 02:00:00 19 32 Norte 53 Nordeste 0 -- -- 69
2020-05-22 01:00:00 19 27 Nordeste 49 Nordeste 0 -- -- 68
2020-05-22 00:00:00 19.2 22 Nordeste 46 Nordeste 0 -- -- 66
2020-05-21 23:00:00 19.2 25 Nordeste 45 Nordeste 0 -- -- 65
2020-05-21 22:00:00 19.5 21 Nordeste 41 Nordeste 0 -- -- 67
2020-05-21 21:00:00 19.6 21 Nordeste 42 Nordeste 0 -- -- 65
2020-05-21 20:00:00 20.1 28 Nordeste 42 Nordeste 0 -- -- 64
2020-05-21 19:00:00 21.1 24 Nordeste 55 Norte 0 -- -- 60
2020-05-21 18:00:00 21.6 28 Norte 45 Nordeste 0 -- -- 60
2020-05-21 17:00:00 22.3 22 Nordeste 46 Norte 0 -- -- 56
2020-05-21 16:00:00 22.4 22 Nordeste 45 Norte 0 -- -- 57
2020-05-21 15:00:00 21.8 27 Norte 44 Norte 0 -- -- 59
2020-05-21 14:00:00 21.4 30 Norte 55 Norte 0 -- -- 61
2020-05-21 13:00:00 21.4 28 Norte 46 Norte 0 -- -- 61
2020-05-21 12:00:00 21.1 26 Norte 48 Norte 0 -- -- 60
2020-05-21 11:00:00 20.8 24 Norte 49 Norte 0 -- -- 62
2020-05-21 10:00:00 20.1 28 Norte 44 Norte 0 -- -- 64
2020-05-21 09:00:00 19.8 24 Nordeste 45 Nordeste 0 -- -- 64
2020-05-21 08:00:00 19 24 Norte 42 Norte 0 -- -- 69
2020-05-21 07:00:00 18.8 27 Norte 42 Norte 0 -- -- 71
2020-05-21 06:00:00 18.9 24 Nordeste 46 Nordeste 0 -- -- 71
2020-05-21 05:00:00 19 22 Nordeste 40 Nordeste 0 -- -- 71
2020-05-21 04:00:00 19.2 20 Nordeste 38 Nordeste 0 -- -- 67
2020-05-21 03:00:00 19.3 26 Nordeste 44 Nordeste 0 -- -- 70
2020-05-21 02:00:00 20.5 23 Nordeste 38 Nordeste 0 -- -- 53
2020-05-21 01:00:00 21.7 21 Nordeste 40 Nordeste 0 -- -- 40
2020-05-21 00:00:00 21 21 Nordeste 40 Nordeste 0 -- -- 44
2020-05-20 23:00:00 20.7 24 Nordeste 44 Nordeste 0 -- -- 56
2020-05-20 22:00:00 20.8 25 Nordeste 44 Nordeste 0 -- -- 60
2020-05-20 21:00:00 20.9 26 Nordeste 44 Nordeste 0 -- -- 68
2020-05-20 20:00:00 22.2 23 Nordeste 42 Nordeste 0 -- -- 63
2020-05-20 19:00:00 23.7 21 Nordeste 43 Nordeste 0 -- -- 60
2020-05-20 18:00:00 23.8 27 Nordeste 50 Nordeste 0 -- -- 60
2020-05-20 17:00:00 24.7 27 Nordeste 46 Nordeste 0 -- -- 52
2020-05-20 16:00:00 25.5 22 Nordeste 44 Nordeste 0 -- -- 51
2020-05-20 15:00:00 24.6 27 Nordeste 49 Nordeste 0 -- -- 54
2020-05-20 14:00:00 23.9 28 Nordeste 50 Norte 0 -- -- 57
2020-05-20 13:00:00 22.7 28 Norte 50 Norte 0 -- -- 63
2020-05-20 12:00:00 22.6 24 Norte 47 Norte 0 -- -- 64
2020-05-20 11:00:00 22.1 30 Norte 52 Norte 0 -- -- 65
2020-05-20 10:00:00 21.3 30 Norte 44 Norte 0 -- -- 68
2020-05-20 09:00:00 20.7 21 Norte 39 Nordeste 0 -- -- 70
2020-05-20 08:00:00 19.7 20 Norte 36 Nordeste 0 -- -- 75
2020-05-20 07:00:00 19.4 17 Norte 35 Norte 0 -- -- 78
2020-05-20 06:00:00 19.5 20 Norte 39 Norte 0 -- -- 79
2020-05-20 05:00:00 19.5 21 Norte 34 Norte 0 -- -- 79
2020-05-20 04:00:00 19.8 20 Nordeste 31 Norte 0 -- -- 80
2020-05-20 03:00:00 20.1 17 Nordeste 30 Nordeste 0 -- -- 79
2020-05-20 02:00:00 20.2 17 Nordeste 27 Nordeste 0 -- -- 75
2020-05-20 01:00:00 20.4 14 Nordeste 26 Nordeste 0 -- -- 70
2020-05-20 00:00:00 20.6 15 Nordeste 27 Nordeste 0 -- -- 67
2020-05-19 23:00:00 20.5 15 Nordeste 24 Nordeste 0 -- -- 71
2020-05-19 22:00:00 20.6 11 Nordeste 27 Norte 0 -- -- 68
2020-05-19 21:00:00 20.5 15 Nordeste 31 Nordeste 0 -- -- 70
2020-05-19 20:00:00 20.8 15 Norte 26 Nordeste 0 -- -- 68
2020-05-19 19:00:00 20.9 14 Norte 25 Nordeste 0 -- -- 70
2020-05-19 18:00:00 21 13 Norte 27 Norte 0 -- -- 71
2020-05-19 17:00:00 20.9 17 Norte 30 Norte 0 -- -- 72
2020-05-19 16:00:00 21 17 Norte 33 Norte 0 -- -- 73
2020-05-19 15:00:00 21.2 18 Norte 32 Norte 0 -- -- 72
2020-05-19 14:00:00 21.1 18 Nordeste 40 Norte 0 -- -- 73
2020-05-19 13:00:00 21.4 23 Norte 37 Norte 0 -- -- 71
2020-05-19 12:00:00 21.5 22 Norte 38 Norte 0 -- -- 72
2020-05-19 11:00:00 20.5 17 Norte 31 Norte 0 -- -- 74
2020-05-19 10:00:00 20 17 Norte 30 Norte 0 -- -- 78
2020-05-19 09:00:00 19.9 16 Norte 31 Norte 0 -- -- 79
2020-05-19 08:00:00 19.7 14 Norte 29 Norte 0 -- -- 81
2020-05-19 07:00:00 19.6 12 Nordeste 24 Norte 0 -- -- 81
2020-05-19 06:00:00 19.8 12 Norte 25 Nordeste 0 -- -- 80
2020-05-19 05:00:00 19.7 13 Nordeste 24 Nordeste 0 -- -- 79
2020-05-19 04:00:00 19.8 13 Nordeste 27 Nordeste 0 -- -- 80
2020-05-19 03:00:00 19.9 18 Nordeste 28 Nordeste 0 -- -- 79
2020-05-19 02:00:00 20.1 16 Nordeste 37 Nordeste 0 -- -- 78
2020-05-19 01:00:00 20.1 17 Nordeste 28 Norte 0 -- -- 79
2020-05-19 00:00:00 20.1 13 Nordeste 32 Nordeste 0 -- -- 77
2020-05-18 23:00:00 20.1 17 Nordeste 31 Nordeste 0 -- -- 77
2020-05-18 22:00:00 20.1 18 Nordeste 31 Nordeste 0 -- -- 76
2020-05-18 21:00:00 20.1 19 Norte 35 Norte 0 -- -- 75
2020-05-18 20:00:00 20.2 19 Norte 34 Norte 0 -- -- 74
2020-05-18 19:00:00 20.5 18 Nordeste 35 Nordeste 0 -- -- 71
2020-05-18 18:00:00 20.6 18 Nordeste 35 Norte 0 -- -- 71
2020-05-18 17:00:00 20.9 23 Norte 40 Norte 0 -- -- 68
2020-05-18 16:00:00 20.6 21 Norte 39 Nordeste 0 -- -- 67
2020-05-18 15:00:00 21 26 Norte 38 Norte 0 -- -- 67
2020-05-18 14:00:00 21.2 22 Nordeste 39 Norte 0 -- -- 64
2020-05-18 13:00:00 22.4 18 Nordeste 35 Nordeste 0 -- -- 56
2020-05-18 12:00:00 21.7 18 Nordeste 33 Nordeste 0 -- -- 59
2020-05-18 11:00:00 20.7 19 Norte 33 Nordeste 0 -- -- 65
2020-05-18 10:00:00 19.5 21 Norte 35 Norte 0 -- -- 69
2020-05-18 09:00:00 19.7 16 Nordeste 32 Norte 0 -- -- 70
2020-05-18 08:00:00 19 17 Nordeste 30 Norte 0 -- -- 71
2020-05-18 07:00:00 18.9 13 Nordeste 29 Nordeste 0 -- -- 72
2020-05-18 06:00:00 19 14 Nordeste 27 Nordeste 0 -- -- 71
2020-05-18 05:00:00 19.1 17 Nordeste 30 Nordeste 0 -- -- 70
2020-05-18 04:00:00 19.2 15 Nordeste 32 Nordeste 0 -- -- 71
2020-05-18 03:00:00 19.3 15 Nordeste 31 Nordeste 0 -- -- 72
2020-05-18 02:00:00 19.4 15 Nordeste 32 Nordeste 0 -- -- 71
2020-05-18 01:00:00 19.4 15 Nordeste 28 Nordeste 0 -- -- 71
2020-05-18 00:00:00 19.3 15 Nordeste 25 Nordeste 0 -- -- 70
2020-05-17 23:00:00 19.2 15 Nordeste 26 Nordeste 0 -- -- 69
2020-05-17 22:00:00 19.4 9 Este 22 Nordeste 0 -- -- 62
2020-05-17 21:00:00 19.8 14 Nordeste 32 Nordeste 0 -- -- 56
2020-05-17 20:00:00 20.8 16 Nordeste 34 Nordeste 0 -- -- 51
2020-05-17 19:00:00 21.3 16 Nordeste 38 Nordeste 0 -- -- 54
2020-05-17 18:00:00 20.2 18 Nordeste 34 Norte 0 -- -- 61
2020-05-17 17:00:00 20.1 18 Nordeste 37 Norte 0 -- -- 63
2020-05-17 16:00:00 20.2 22 Nordeste 36 Norte 0 -- -- 66
2020-05-17 15:00:00 19.7 14 Nordeste 30 Nordeste 0 -- -- 70
2020-05-17 14:00:00 19.7 19 Nordeste 32 Nordeste 0 -- -- 64
2020-05-17 13:00:00 20.3 15 Nordeste 35 Nordeste 0 -- -- 63
2020-05-17 12:00:00 20.8 17 Nordeste 33 Nordeste 0 -- -- 56
2020-05-17 11:00:00 20.8 19 Nordeste 31 Nordeste 0 -- -- 57
2020-05-17 10:00:00 19.7 18 Nordeste 31 Nordeste 0 -- -- 62
2020-05-17 09:00:00 19.5 17 Nordeste 32 Nordeste 0 -- -- 61
2020-05-17 08:00:00 19.3 15 Nordeste 31 Nordeste 0 -- -- 64
2020-05-17 07:00:00 19.2 17 Nordeste 32 Nordeste 0 -- -- 63
2020-05-17 06:00:00 18.6 19 Nordeste 30 Nordeste 0 -- -- 72
2020-05-17 05:00:00 19.1 17 Nordeste 33 Nordeste 0 -- -- 68
2020-05-17 04:00:00 19 15 Nordeste 30 Nordeste 0 -- -- 65
2020-05-17 03:00:00 19.1 18 Nordeste 31 Nordeste 0 -- -- 63
2020-05-17 02:00:00 19.1 18 Nordeste 35 Nordeste 0 -- -- 65
2020-05-17 01:00:00 19.3 16 Nordeste 30 Nordeste 0 -- -- 63
2020-05-17 00:00:00 19.2 15 Nordeste 31 Nordeste 0 -- -- 64
2020-05-16 23:00:00 19.3 19 Nordeste 32 Norte 0 -- -- 62
2020-05-16 22:00:00 19.4 19 Nordeste 31 Nordeste 0 -- -- 63
2020-05-16 21:00:00 19.5 21 Norte 35 Norte 0 -- -- 61
2020-05-16 20:00:00 20.1 19 Norte 34 Norte 0 -- -- 57
2020-05-16 19:00:00 21.2 19 Nordeste 35 Norte 0 -- -- 52
2020-05-16 18:00:00 21.2 20 Norte 36 Norte 0 -- -- 50
2020-05-16 17:00:00 20.9 17 Norte 41 Norte 0 -- -- 52
2020-05-16 16:00:00 21.8 24 Norte 40 Norte 0 -- -- 49
2020-05-16 15:00:00 21.7 22 Norte 37 Norte 0 -- -- 46
2020-05-16 14:00:00 21.5 19 Norte 31 Norte 0 -- -- 44
2020-05-16 13:00:00 20.8 22 Norte 51 Norte 0 -- -- 48
2020-05-16 12:00:00 21.4 15 Nordeste 38 Norte 0 -- -- 49
2020-05-16 11:00:00 21.1 17 Nordeste 32 Norte 0 -- -- 46
2020-05-16 10:00:00 20.9 18 Nordeste 30 Nordeste 0 -- -- 42
2020-05-16 09:00:00 19.9 11 Nordeste 27 Norte 0 -- -- 53
2020-05-16 08:00:00 18.9 13 Nordeste 30 Norte 0 -- -- 61
2020-05-16 07:00:00 19 11 Nordeste 19 Norte 0 -- -- 66
2020-05-16 06:00:00 18.6 9 Este 21 Nordeste 0 -- -- 65
2020-05-16 05:00:00 18.7 11 Nordeste 23 Nordeste 0 -- -- 66
2020-05-16 04:00:00 19 16 Nordeste 29 Norte 0 -- -- 66
2020-05-16 03:00:00 19.3 10 Nordeste 24 Nordeste 0 -- -- 68
2020-05-16 02:00:00 19.4 12 Nordeste 28 Norte 0 -- -- 64
2020-05-16 01:00:00 19.6 13 Nordeste 23 Nordeste 0 -- -- 65
2020-05-16 00:00:00 19.5 14 Nordeste 24 Nordeste 0 -- -- 65
2020-05-15 23:00:00 19.6 14 Nordeste 25 Norte 0 -- -- 64
2020-05-15 22:00:00 19.7 15 Nordeste 27 Nordeste 0 -- -- 62
2020-05-15 21:00:00 20 15 Norte 28 Nordeste 0 -- -- 61
2020-05-15 20:00:00 20.6 18 Norte 28 Norte 0 -- -- 61
2020-05-15 19:00:00 21 20 Norte 32 Norte 0 -- -- 65
2020-05-15 18:00:00 20.9 21 Norte 33 Norte 0 -- -- 64
2020-05-15 17:00:00 21.3 23 Norte 32 Norte 0 -- -- 68
2020-05-15 16:00:00 21.3 21 Norte 26 Norte 0 -- -- 66
2020-05-15 15:00:00 21.2 20 Norte 29 Norte 0 -- -- 63
2020-05-15 14:00:00 21.1 17 Norte 30 Norte 0 -- -- 65
2020-05-15 13:00:00 20 8 Nordeste 27 Nordeste 0 -- -- 68
2020-05-15 12:00:00 18.6 19 Nordeste 35 Norte 0 -- -- 73
2020-05-15 11:00:00 19.6 20 Norte 30 Norte 0 -- -- 74
2020-05-15 10:00:00 19.5 19 Norte 26 Norte 0 -- -- 72
2020-05-15 09:00:00 19.2 16 Norte 26 Norte 0 -- -- 72
2020-05-15 08:00:00 18.8 12 Norte 27 Noroeste 0 -- -- 70
2020-05-15 07:00:00 18.9 10 Norte 20 Norte 0 -- -- 63
2020-05-15 06:00:00 18.8 11 Norte 26 Norte 0 -- -- 65
2020-05-15 05:00:00 18.9 19 Norte 24 Norte 0 -- -- 61
2020-05-15 04:00:00 18.7 10 Norte 31 Norte 0 -- -- 53
2020-05-15 03:00:00 18.9 18 Norte 36 Noroeste 0 -- -- 63
2020-05-15 02:00:00 19.1 25 Norte 38 Norte 0 -- -- 60
2020-05-15 01:00:00 19.2 24 Norte 37 Noroeste 0 -- -- 66
2020-05-15 00:00:00 19.3 27 Norte 38 Norte 0 -- -- 64
2020-05-14 23:00:00 19.2 12 Norte 33 Norte 0 -- -- 67
2020-05-14 22:00:00 19.5 20 Norte 33 Norte 0 -- -- 67
2020-05-14 21:00:00 19.3 9 Norte 37 Norte 0 -- -- 64
2020-05-14 20:00:00 20.3 26 Norte 37 Norte 0 -- -- 61
2020-05-14 19:00:00 20.3 27 Norte 39 Norte 0 -- -- 62
2020-05-14 18:00:00 20.5 25 Norte 33 Norte 0 -- -- 61
2020-05-14 17:00:00 20.6 26 Norte 33 Noroeste 0 -- -- 62
2020-05-14 16:00:00 21.3 22 Norte 28 Norte 0 -- -- 65
2020-05-14 15:00:00 21.6 14 Norte 29 Norte 0 -- -- 63
2020-05-14 14:00:00 21.5 20 Norte 28 Noroeste 0 -- -- 66
2020-05-14 13:00:00 21.5 19 Norte 24 Norte 0 -- -- 64
2020-05-14 12:00:00 23.4 4 Sur 12 Nordeste 0 -- -- 46
2020-05-14 11:00:00 23 3 Sudoeste 16 Norte 0 -- -- 47
2020-05-14 10:00:00 20.7 13 Norte 24 Norte 0 -- -- 62
2020-05-14 09:00:00 19.8 23 Norte 30 Norte 0 -- -- 69
2020-05-14 08:00:00 20.1 5 Este 10 Nordeste 0 -- -- 56
2020-05-14 07:00:00 19.5 3 Noroeste 18 Sudeste 0 -- -- 54
2020-05-14 06:00:00 20.1 12 Sudeste 19 Sudeste 0 -- -- 47
2020-05-14 05:00:00 19.6 5 Este 17 Sudeste 0 -- -- 48
2020-05-14 04:00:00 19 10 Este 17 Sudeste 0 -- -- 58
2020-05-14 03:00:00 19.2 7 Nordeste 24 Norte 0 -- -- 55
2020-05-14 02:00:00 19.2 8 Este 22 Este 0 -- -- 59
2020-05-14 01:00:00 19.2 8 Sudeste 18 Norte 0 -- -- 54
2020-05-14 00:00:00 19.6 9 Nordeste 22 Norte 0 -- -- 54
2020-05-13 23:00:00 19.9 9 Norte 23 Norte 0 -- -- 55
2020-05-13 22:00:00 20 10 Norte 19 Norte 0 -- -- 58
2020-05-13 21:00:00 20 9 Norte 20 Norte 0 -- -- 59
2020-05-13 20:00:00 20.6 15 Norte 28 Norte 0 -- -- 61
2020-05-13 19:00:00 20.7 20 Norte 45 Norte 0 -- -- 67
2020-05-13 18:00:00 20.7 27 Norte 34 Norte 0 -- -- 65
2020-05-13 17:00:00 21.1 26 Norte 35 Norte 0 -- -- 68
2020-05-13 16:00:00 21.3 28 Norte 39 Norte 0 -- -- 71
2020-05-13 15:00:00 25.1 6 Noroeste 21 Oeste 0 -- -- 45
2020-05-13 14:00:00 24.5 10 Noroeste 17 Norte 0 -- -- 43
2020-05-13 13:00:00 23.8 12 Norte 21 Norte 0 -- -- 44
2020-05-13 12:00:00 22.9 17 Sudeste 27 Sudeste 0 -- -- 46
2020-05-13 11:00:00 22.2 7 Sudoeste 19 Norte 0 -- -- 62
2020-05-13 10:00:00 21.9 5 Sudeste 14 Norte 0 -- -- 61
2020-05-13 09:00:00 20.5 4 Sudeste 12 Este 0 -- -- 68
2020-05-13 08:00:00 19.9 8 Nordeste 15 Este 0 -- -- 72
2020-05-13 07:00:00 19.5 7 Nordeste 13 Nordeste 0 -- -- 65
2020-05-13 06:00:00 19.9 8 Norte 24 Noroeste 0 -- -- 74
2020-05-13 05:00:00 19.9 20 Norte 26 Noroeste 0 -- -- 74
2020-05-13 04:00:00 20 10 Norte 18 Norte 0 -- -- 73
2020-05-13 03:00:00 19.7 5 Este 10 Nordeste 0 -- -- 70
2020-05-13 02:00:00 20 6 Nordeste 16 Norte 0 -- -- 70
2020-05-13 01:00:00 20.2 9 Nordeste 25 Norte 0 -- -- 69
2020-05-13 00:00:00 20.3 8 Norte 16 Nordeste 0 -- -- 71
2020-05-12 23:00:00 20.1 12 Norte 31 Norte 0 -- -- 72
2020-05-12 22:00:00 20.3 23 Norte 32 Norte 0 -- -- 73
2020-05-12 21:00:00 20.6 12 Nordeste 24 Norte 0 -- -- 68
2020-05-12 20:00:00 21.2 13 Norte 36 Norte 0 -- -- 67
2020-05-12 19:00:00 20.9 19 Norte 36 Norte 0 -- -- 68
2020-05-12 18:00:00 21.2 24 Norte 31 Norte 0 -- -- 67
2020-05-12 17:00:00 21.6 22 Norte 31 Norte 0 -- -- 68
2020-05-12 16:00:00 21.9 18 Norte 24 Norte 0 -- -- 66
2020-05-12 15:00:00 22.2 14 Norte 21 Norte 0 -- -- 62
2020-05-12 14:00:00 21.9 12 Norte 16 Norte 0 -- -- 63
2020-05-12 13:00:00 22 4 Norte 12 Norte 0 -- -- 59
2020-05-12 12:00:00 21 10 Norte 17 Norte 0 -- -- 64
2020-05-12 11:00:00 20.2 13 Norte 22 Norte 0 -- -- 66
2020-05-12 10:00:00 -- -- -- -- -- -- -- -- --
2020-05-12 09:00:00 19.2 8 Nordeste 27 Norte 0 -- -- 72
2020-05-12 08:00:00 19.8 7 Este 17 Sur 0 -- -- 61
2020-05-12 07:00:00 19.6 6 Sudeste 14 Este 0 -- -- 58
2020-05-12 06:00:00 19.1 7 Este 16 Este 0 -- -- 60
2020-05-12 05:00:00 19.3 7 Sudeste 12 Este 0 -- -- 60
2020-05-12 04:00:00 19.5 5 Nordeste 10 Este 0 -- -- 60
2020-05-12 03:00:00 19.7 12 Norte 23 Norte 0 -- -- 65
2020-05-12 02:00:00 20.1 5 Norte 14 Norte 0 -- -- 68
2020-05-12 01:00:00 19.9 7 Nordeste 21 Norte 0 -- -- 63
2020-05-12 00:00:00 20 11 Norte 22 Norte 0 -- -- 65
2020-05-11 23:00:00 20.3 14 Norte 21 Norte 0 -- -- 69
2020-05-11 22:00:00 20.5 12 Norte 24 Norte 0 -- -- 78
2020-05-11 21:00:00 20.8 18 Norte 33 Norte 0 -- -- 75
2020-05-11 20:00:00 22.2 24 Norte 30 Norte 0 -- -- 69
2020-05-11 19:00:00 23 14 Noroeste 22 Norte 0 -- -- 68
2020-05-11 18:00:00 23.3 18 Norte 32 Norte 0 -- -- 65
2020-05-11 17:00:00 23.3 19 Norte 34 Norte 0 -- -- 65
2020-05-11 16:00:00 22.8 24 Norte 30 Norte 0 -- -- 62
2020-05-11 15:00:00 23 21 Norte 26 Norte 0 -- -- 62
2020-05-11 14:00:00 23 19 Norte 28 Norte 0 -- -- 68
2020-05-11 13:00:00 22.9 14 Norte 21 Norte 0 -- -- 65
2020-05-11 12:00:00 22.6 13 Norte 21 Norte 0 -- -- 65
2020-05-11 11:00:00 22.3 10 Norte 21 Norte 0 -- -- 64
2020-05-11 10:00:00 21 15 Norte 18 Norte 0 -- -- 74
2020-05-11 09:00:00 21.1 8 Nordeste 16 Nordeste 0 -- -- 71
2020-05-11 08:00:00 20.2 10 Nordeste 17 Norte 0 -- -- 74
2020-05-11 07:00:00 20.2 8 Norte 19 Norte 0 -- -- 75
2020-05-11 06:00:00 21 8 Nordeste 26 Este 0 -- -- 66
2020-05-11 05:00:00 20.7 14 Este 30 Sudeste 0 -- -- 66
2020-05-11 04:00:00 20.3 12 Nordeste 23 Este 0 -- -- 68
2020-05-11 03:00:00 20.3 13 Nordeste 23 Nordeste 0 -- -- 69
2020-05-11 02:00:00 20.4 14 Nordeste 25 Nordeste 0 -- -- 68
2020-05-11 01:00:00 20.5 16 Nordeste 28 Nordeste 0 -- -- 70
2020-05-11 00:00:00 20.6 15 Norte 28 Norte 0 -- -- 70
2020-05-10 23:00:00 20.8 14 Nordeste 28 Este 0 -- -- 67
2020-05-10 22:00:00 20.7 16 Nordeste 34 Nordeste 0 -- -- 68
2020-05-10 21:00:00 20.7 16 Nordeste 31 Norte 0 -- -- 69
2020-05-10 20:00:00 21.4 18 Norte 28 Norte 0 -- -- 68
2020-05-10 19:00:00 21.7 15 Nordeste 29 Norte 0 -- -- 63
2020-05-10 18:00:00 22.8 12 Norte 35 Norte 0 -- -- 64
2020-05-10 17:00:00 23.1 17 Norte 32 Norte 0 -- -- 65
2020-05-10 16:00:00 21.9 24 Norte 32 Norte 0 -- -- 69
2020-05-10 15:00:00 22.5 22 Norte 31 Norte 0 -- -- 63
2020-05-10 14:00:00 21.9 24 Norte 28 Norte 0 -- -- 69
2020-05-10 13:00:00 22 18 Norte 21 Norte 0 -- -- 69
2020-05-10 12:00:00 21.5 16 Norte 25 Norte 0 -- -- 67
2020-05-10 11:00:00 21.2 12 Norte 20 Norte 0 -- -- 66
2020-05-10 10:00:00 20.7 11 Norte 20 Norte 0 -- -- 69
2020-05-10 09:00:00 20.4 8 Nordeste 14 Nordeste 0 -- -- 69
2020-05-10 08:00:00 19.7 7 Nordeste 14 Este 0 -- -- 70
2020-05-10 07:00:00 19.4 7 Nordeste 20 Nordeste 0 -- -- 70
2020-05-10 06:00:00 19.6 10 Nordeste 21 Nordeste 0 -- -- 70
2020-05-10 05:00:00 19.7 14 Nordeste 23 Norte 0 -- -- 70
2020-05-10 04:00:00 20.1 15 Nordeste 25 Nordeste 0 -- -- 70
2020-05-10 03:00:00 20.1 10 Nordeste 21 Nordeste 0 -- -- 70
2020-05-10 02:00:00 20.2 11 Nordeste 31 Nordeste 0 -- -- 68
2020-05-10 01:00:00 20.3 14 Nordeste 27 Nordeste 0 -- -- 69
2020-05-10 00:00:00 20.6 14 Nordeste 26 Nordeste 0 -- -- 70
2020-05-09 23:00:00 20.7 14 Nordeste 24 Nordeste 0 -- -- 69
2020-05-09 22:00:00 21.1 14 Nordeste 21 Nordeste 0 -- -- 69
2020-05-09 21:00:00 21.1 13 Nordeste 24 Norte 0 -- -- 67
2020-05-09 20:00:00 21.9 14 Norte 28 Norte 0 -- -- 64
2020-05-09 19:00:00 22.4 19 Norte 34 Norte 0 -- -- 66
2020-05-09 18:00:00 22.6 22 Norte 30 Norte 0 -- -- 69
2020-05-09 17:00:00 22.8 17 Norte 28 Norte 0 -- -- 68
2020-05-09 16:00:00 23 15 Norte 26 Norte 0 -- -- 67
2020-05-09 15:00:00 22.2 17 Norte 23 Norte 0 -- -- 73
2020-05-09 14:00:00 22.1 11 Norte 45 Norte 0 -- -- 71
2020-05-09 13:00:00 22.4 22 Norte 31 Norte 0 -- -- 66
2020-05-09 12:00:00 23.1 15 Norte 32 Norte 0 -- -- 59
2020-05-09 11:00:00 21.5 24 Norte 29 Norte 0 -- -- 71
2020-05-09 10:00:00 21.4 14 Norte 19 Norte 0 -- -- 69
2020-05-09 09:00:00 22.4 6 Nordeste 23 Este 0 -- -- 58
2020-05-09 08:00:00 20 13 Este 23 Este 0 -- -- 58
2020-05-09 07:00:00 19.4 10 Este 24 Este 0 -- -- 56
2020-05-09 06:00:00 19.4 11 Este 21 Este 0 -- -- 62
2020-05-09 05:00:00 19.4 11 Este 18 Este 0 -- -- 60
2020-05-09 04:00:00 19.2 10 Este 17 Este 0 -- -- 57
2020-05-09 03:00:00 19.6 5 Nordeste 13 Norte 0 -- -- 67
2020-05-09 02:00:00 20 10 Nordeste 15 Nordeste 0 -- -- 65
2020-05-09 01:00:00 20.3 11 Nordeste 23 Este 0 -- -- 64
2020-05-09 00:00:00 20.5 11 Nordeste 22 Nordeste 0 -- -- 63
2020-05-08 23:00:00 20.7 10 Nordeste 25 Nordeste 0 -- -- 62
2020-05-08 22:00:00 20.8 11 Nordeste 26 Nordeste 0 -- -- 65
2020-05-08 21:00:00 21 14 Nordeste 32 Este 0 -- -- 64
2020-05-08 20:00:00 22.3 13 Norte 30 Norte 0 -- -- 61
2020-05-08 19:00:00 22.2 23 Norte 40 Norte 0 -- -- 61
2020-05-08 18:00:00 22.3 24 Norte 32 Norte 0 -- -- 65
2020-05-08 17:00:00 22.1 27 Norte 40 Norte 0 -- -- 66
2020-05-08 16:00:00 22.9 23 Norte 35 Norte 0 -- -- 58
2020-05-08 15:00:00 22.3 23 Norte 39 Norte 0 -- -- 62
2020-05-08 14:00:00 22.1 24 Norte 40 Norte 0 -- -- 60
2020-05-08 13:00:00 21.6 26 Norte 32 Norte 0 -- -- 66
2020-05-08 12:00:00 21.3 25 Norte 34 Norte 0 -- -- 66
2020-05-08 11:00:00 21.6 18 Norte 26 Norte 0 -- -- 61
2020-05-08 10:00:00 21.7 11 Nordeste 21 Nordeste 0 -- -- 58
2020-05-08 09:00:00 20.8 11 Norte 18 Nordeste 0 -- -- 63
2020-05-08 08:00:00 19.8 7 Nordeste 15 Este 0 -- -- 62
2020-05-08 07:00:00 18.6 10 Nordeste 18 Nordeste 0 -- -- 62
2020-05-08 06:00:00 18.9 8 Nordeste 17 Este 0 -- -- 66
2020-05-08 05:00:00 19 9 Nordeste 16 Este 0 -- -- 65
2020-05-08 04:00:00 19 7 Nordeste 15 Nordeste 0 -- -- 67
2020-05-08 03:00:00 19.3 9 Nordeste 20 Nordeste 0 -- -- 68
2020-05-08 02:00:00 19.5 10 Nordeste 17 Nordeste 0 -- -- 69
2020-05-08 01:00:00 19.7 9 Nordeste 18 Nordeste 0 -- -- 68
2020-05-08 00:00:00 20 11 Nordeste 19 Norte 0 -- -- 68
2020-05-07 23:00:00 20.4 11 Nordeste 19 Nordeste 0 -- -- 68
2020-05-07 22:00:00 20.6 8 Nordeste 17 Nordeste 0 -- -- 67
2020-05-07 21:00:00 20.8 10 Nordeste 22 Norte 0 -- -- 65
2020-05-07 20:00:00 21.5 14 Norte 31 Norte 0 -- -- 60
2020-05-07 19:00:00 22.1 19 Norte 33 Norte 0 -- -- 62
2020-05-07 18:00:00 22.3 21 Norte 34 Norte 0 -- -- 61
2020-05-07 17:00:00 22.2 23 Norte 32 Norte 0 -- -- 59
2020-05-07 16:00:00 22.6 22 Norte 38 Norte 0 -- -- 58
2020-05-07 15:00:00 22.7 20 Norte 37 Nordeste 0 -- -- 55
2020-05-07 14:00:00 22.4 24 Norte 37 Norte 0 -- -- 54
2020-05-07 13:00:00 21.7 23 Norte 35 Norte 0 -- -- 62
2020-05-07 12:00:00 22 17 Norte 31 Norte 0 -- -- 59
2020-05-07 11:00:00 21.2 16 Norte 26 Norte 0 -- -- 61
2020-05-07 10:00:00 20.9 12 Nordeste 20 Nordeste 0 -- -- 61
2020-05-07 09:00:00 20.4 12 Nordeste 21 Nordeste 0 -- -- 63
2020-05-07 08:00:00 19.6 8 Nordeste 17 Nordeste 0 -- -- 66
2020-05-07 07:00:00 18.9 8 Nordeste 19 Sudeste 0 -- -- 67
2020-05-07 06:00:00 18.8 9 Nordeste 18 Nordeste 0 -- -- 65
2020-05-07 05:00:00 18.8 10 Nordeste 18 Nordeste 0 -- -- 65
2020-05-07 04:00:00 18.9 11 Nordeste 19 Este 0 -- -- 67
2020-05-07 03:00:00 19.5 11 Nordeste 24 Este 0 -- -- 63
2020-05-07 02:00:00 19.8 9 Nordeste 20 Nordeste 0 -- -- 60
2020-05-07 01:00:00 19.7 10 Nordeste 24 Este 0 -- -- 64
2020-05-07 00:00:00 20 10 Nordeste 25 Este 0 -- -- 63
2020-05-06 23:00:00 20 12 Nordeste 23 Nordeste 0 -- -- 66
2020-05-06 22:00:00 20.1 10 Nordeste 26 Nordeste 0 -- -- 65
2020-05-06 21:00:00 20.5 15 Nordeste 29 Nordeste 0 -- -- 64
2020-05-06 20:00:00 21.4 16 Nordeste 30 Nordeste 0 -- -- 64
2020-05-06 19:00:00 22.3 17 Nordeste 32 Nordeste 0 -- -- 60
2020-05-06 18:00:00 22.9 18 Nordeste 34 Norte 0 -- -- 58
2020-05-06 17:00:00 23.4 17 Norte 35 Norte 0 -- -- 58
2020-05-06 16:00:00 23.2 20 Nordeste 37 Nordeste 0 -- -- 54
2020-05-06 15:00:00 22.8 18 Nordeste 40 Norte 0 -- -- 57
2020-05-06 14:00:00 22.7 21 Nordeste 40 Nordeste 0 -- -- 56
2020-05-06 13:00:00 22.5 23 Nordeste 41 Nordeste 0 -- -- 54
2020-05-06 12:00:00 21.6 21 Norte 42 Nordeste 0 -- -- 58
2020-05-06 11:00:00 21.3 22 Nordeste 37 Nordeste 0 -- -- 57
2020-05-06 10:00:00 20.9 19 Nordeste 35 Nordeste 0 -- -- 58
2020-05-06 09:00:00 20.1 19 Nordeste 32 Nordeste 0 -- -- 61
2020-05-06 08:00:00 19.4 18 Nordeste 33 Nordeste 0 -- -- 63
2020-05-06 07:00:00 19.1 15 Nordeste 32 Nordeste 0 -- -- 62
2020-05-06 06:00:00 19.1 18 Nordeste 35 Nordeste 0 -- -- 62
2020-05-06 05:00:00 19.2 17 Nordeste 43 Nordeste 0 -- -- 62
2020-05-06 04:00:00 19.2 18 Nordeste 34 Nordeste 0 -- -- 63
2020-05-06 03:00:00 19.3 18 Nordeste 31 Nordeste 0 -- -- 61
2020-05-06 02:00:00 19.4 20 Nordeste 33 Nordeste 0 -- -- 62
2020-05-06 01:00:00 19.5 17 Nordeste 31 Nordeste 0 -- -- 62
2020-05-06 00:00:00 19.6 17 Nordeste 33 Nordeste 0 -- -- 61
2020-05-05 23:00:00 19.8 18 Nordeste 32 Nordeste 0 -- -- 62
2020-05-05 22:00:00 20 18 Nordeste 32 Norte 0 -- -- 60
2020-05-05 21:00:00 20.3 19 Nordeste 36 Nordeste 0 -- -- 60
2020-05-05 20:00:00 21.3 20 Nordeste 38 Nordeste 0 -- -- 56
2020-05-05 19:00:00 22.2 21 Nordeste 39 Nordeste 0 -- -- 54
2020-05-05 18:00:00 22.6 22 Nordeste 40 Norte 0 -- -- 53
2020-05-05 17:00:00 22.8 23 Nordeste 39 Nordeste 0 -- -- 49
2020-05-05 16:00:00 22.9 21 Nordeste 36 Nordeste 0 -- -- 50
2020-05-05 15:00:00 22.5 27 Norte 42 Norte 0 -- -- 52
2020-05-05 14:00:00 23.4 16 Nordeste 41 Norte 0 -- -- 51
2020-05-05 13:00:00 22.2 22 Norte 37 Norte 0 -- -- 54
2020-05-05 12:00:00 22.2 18 Norte 32 Norte 0 -- -- 54
2020-05-05 11:00:00 22.2 13 Nordeste 26 Norte 0 -- -- 50
2020-05-05 10:00:00 21.6 13 Nordeste 27 Nordeste 0 -- -- 56
2020-05-05 09:00:00 20.2 10 Nordeste 19 Nordeste 0 -- -- 60
2020-05-05 08:00:00 18.9 8 Este 18 Este 0 -- -- 61
2020-05-05 07:00:00 18.6 8 Este 15 Este 0 -- -- 62
2020-05-05 06:00:00 18.8 6 Este 17 Este 0 -- -- 64
2020-05-05 05:00:00 19.1 8 Este 17 Nordeste 0 -- -- 61
2020-05-05 04:00:00 19.3 8 Este 18 Este 0 -- -- 61
2020-05-05 03:00:00 19.3 6 Nordeste 18 Nordeste 0 -- -- 65
2020-05-05 02:00:00 19.7 9 Nordeste 17 Nordeste 0 -- -- 64
2020-05-05 01:00:00 20.1 11 Nordeste 18 Nordeste 0 -- -- 68
2020-05-05 00:00:00 20.6 12 Nordeste 22 Nordeste 0 -- -- 66
2020-05-04 23:00:00 20.7 11 Nordeste 21 Nordeste 0 -- -- 66
2020-05-04 22:00:00 20.8 12 Nordeste 25 Nordeste 0 -- -- 64
2020-05-04 21:00:00 21 11 Nordeste 28 Norte 0 -- -- 63
2020-05-04 20:00:00 21.9 15 Nordeste 31 Norte 0 -- -- 61
2020-05-04 19:00:00 21.8 13 Nordeste 27 Norte 0 -- -- 65
2020-05-04 18:00:00 21.9 15 Norte 30 Norte 0 -- -- 68
2020-05-04 17:00:00 22.5 18 Norte 33 Norte 0 -- -- 66
2020-05-04 16:00:00 22.8 16 Norte 30 Norte 0 -- -- 63
2020-05-04 15:00:00 23 19 Norte 25 Norte 0 -- -- 60
2020-05-04 14:00:00 22.7 15 Norte 22 Norte 0 -- -- 61
2020-05-04 13:00:00 22.1 14 Norte 25 Norte 0 -- -- 65
2020-05-04 12:00:00 21.9 20 Norte 35 Norte 0 -- -- 64
2020-05-04 11:00:00 22.6 18 Norte 27 Norte 0 -- -- 64
2020-05-04 10:00:00 22 14 Nordeste 24 Nordeste 0 -- -- 66
2020-05-04 09:00:00 21.4 9 Nordeste 19 Este 0 -- -- 65
2020-05-04 08:00:00 20 7 Este 20 Nordeste 0 -- -- 70
2020-05-04 07:00:00 20 9 Nordeste 22 Nordeste 0 -- -- 73
2020-05-04 06:00:00 20.1 12 Nordeste 23 Nordeste 0 -- -- 73
2020-05-04 05:00:00 20 13 Nordeste 23 Nordeste 0 -- -- 72
2020-05-04 04:00:00 20.1 8 Este 18 Sudeste 0 -- -- 69
2020-05-04 03:00:00 20.1 6 Este 14 Este 0 -- -- 70
2020-05-04 02:00:00 19.9 6 Este 17 Este 0 -- -- 70
2020-05-04 01:00:00 19.7 5 Este 13 Este 0 -- -- 75
2020-05-04 00:00:00 20 6 Este 13 Nordeste 0 -- -- 77
2020-05-03 23:00:00 20.2 4 Noroeste 19 Oeste 0 -- -- 78
2020-05-03 22:00:00 20.4 14 Sudoeste 23 Sudoeste 0 -- -- 78
2020-05-03 21:00:00 20.5 16 Sudoeste 28 Sudoeste 0 -- -- 76
2020-05-03 20:00:00 21.5 18 Sudoeste 27 Sudoeste 0 -- -- 74
2020-05-03 19:00:00 21.6 21 Oeste 32 Oeste 0 -- -- 74
2020-05-03 18:00:00 21.5 23 Oeste 31 Oeste 0 -- -- 74
2020-05-03 17:00:00 21.6 22 Oeste 30 Sudoeste 0 -- -- 74
2020-05-03 16:00:00 21.6 21 Sudoeste 33 Sudoeste 0 -- -- 72
2020-05-03 15:00:00 21.5 25 Sudoeste 39 Sudoeste 0 -- -- 72
2020-05-03 14:00:00 21.5 28 Sudoeste 37 Sudoeste 0 -- -- 72
2020-05-03 13:00:00 21.8 14 Sudoeste 19 Sudoeste 0 -- -- 70
2020-05-03 12:00:00 21.3 6 Oeste 10 Oeste 0 -- -- 69
2020-05-03 11:00:00 21.4 3 Oeste 12 Oeste 0 -- -- 68
2020-05-03 10:00:00 20.6 6 Oeste 14 Sudoeste 0 -- -- 70
2020-05-03 09:00:00 20.7 10 Sudoeste 18 Sur 0 -- -- 71
2020-05-03 08:00:00 18.4 9 Sudeste 14 Este 0 -- -- 75
2020-05-03 07:00:00 17.8 8 Este 12 Este 0 -- -- 78
2020-05-03 06:00:00 17.9 8 Este 22 Sur 0 -- -- 77
2020-05-03 05:00:00 19.1 21 Sur 34 Sur 0 -- -- 79
2020-05-03 04:00:00 18.3 12 Nordeste 23 Nordeste 0 -- -- 78
2020-05-03 03:00:00 18.7 3 Nordeste 17 Nordeste 0 -- -- 78
2020-05-03 02:00:00 19 7 Norte 15 Nordeste 0 -- -- 77
2020-05-03 01:00:00 19.2 8 Norte 16 Norte 0 -- -- 79
2020-05-03 00:00:00 19.7 6 Norte 10 Norte 0 -- -- 79
2020-05-02 23:00:00 19.7 10 Norte 15 Noroeste 0 -- -- 80
2020-05-02 22:00:00 20.2 10 Noroeste 13 Norte 0 -- -- 79
2020-05-02 21:00:00 20.4 5 Norte 7 Oeste 0 -- -- 76
2020-05-02 20:00:00 22.2 4 Noroeste 7 Noroeste 0 -- -- 71
2020-05-02 19:00:00 23 6 Oeste 9 Oeste 0 -- -- 69
2020-05-02 18:00:00 22.8 7 Oeste 10 Oeste 0 -- -- 69
2020-05-02 17:00:00 22.6 8 Oeste 13 Sudoeste 0 -- -- 70
2020-05-02 16:00:00 22.5 11 Sudoeste 14 Sudoeste 0 -- -- 68
2020-05-02 15:00:00 22.5 7 Sudoeste 12 Sudoeste 0 -- -- 68
2020-05-02 14:00:00 22.3 8 Sudoeste 14 Sudoeste 0 -- -- 68
2020-05-02 13:00:00 21.9 13 Sudoeste 17 Sudoeste 0 -- -- 70
2020-05-02 12:00:00 21.9 13 Sudoeste 21 Sudoeste 0 -- -- 68
2020-05-02 11:00:00 22 11 Sur 14 Sur 0 -- -- 68
2020-05-02 10:00:00 21.5 9 Oeste 21 Sudeste 0 -- -- 64
2020-05-02 09:00:00 21.2 4 Este 18 Este 0 -- -- 62
2020-05-02 08:00:00 18.4 12 Este 17 Este 0 -- -- 69
2020-05-02 07:00:00 18.5 9 Este 25 Sudeste 0 -- -- 68
2020-05-02 06:00:00 18.7 12 Este 34 Este 0 -- -- 66
2020-05-02 05:00:00 19.1 10 Este 42 Este 0 -- -- 66
2020-05-02 04:00:00 19.1 21 Nordeste 54 Nordeste 0 -- -- 68
2020-05-02 03:00:00 19.1 22 Nordeste 44 Nordeste 0 -- -- 68
2020-05-02 02:00:00 19.3 23 Nordeste 48 Nordeste 0 -- -- 69
2020-05-02 01:00:00 19.6 28 Nordeste 42 Nordeste 0 -- -- 72
2020-05-02 00:00:00 19.9 22 Nordeste 46 Nordeste 0 -- -- 68
2020-05-01 23:00:00 19.8 26 Norte 42 Nordeste 0 -- -- 72
2020-05-01 22:00:00 19.9 24 Norte 39 Norte 0 -- -- 72
2020-05-01 21:00:00 20.3 22 Nordeste 46 Nordeste 0 -- -- 72
2020-05-01 20:00:00 21 31 Nordeste 47 Nordeste 0 -- -- 70
2020-05-01 19:00:00 22 26 Nordeste 47 Nordeste 0 -- -- 66
2020-05-01 18:00:00 22.6 30 Nordeste 48 Nordeste 0 -- -- 59
2020-05-01 17:00:00 22.9 27 Nordeste 54 Nordeste 0 -- -- 58
2020-05-01 16:00:00 22.8 28 Nordeste 53 Nordeste 0 -- -- 60
2020-05-01 15:00:00 22.9 30 Nordeste 54 Nordeste 0 -- -- 58
2020-05-01 14:00:00 23.3 25 Norte 50 Norte 0 -- -- 56
2020-05-01 13:00:00 22.4 28 Norte 62 Nordeste 0 -- -- 61
2020-05-01 12:00:00 22.3 26 Nordeste 45 Nordeste 0 -- -- 58
2020-05-01 11:00:00 21.4 28 Nordeste 51 Nordeste 0 -- -- 60
2020-05-01 10:00:00 20.9 27 Norte 49 Nordeste 0 -- -- 61
2020-05-01 09:00:00 20 30 Norte 48 Nordeste 0 -- -- 64
2020-05-01 08:00:00 19.3 24 Norte 49 Nordeste 0 -- -- 65
2020-05-01 07:00:00 19.1 24 Nordeste 48 Norte 0 -- -- 65
2020-05-01 06:00:00 18.9 28 Norte 42 Norte 0 -- -- 68
2020-05-01 05:00:00 19 24 Nordeste 41 Nordeste 0 -- -- 67
2020-05-01 04:00:00 19.2 21 Nordeste 34 Nordeste 0 -- -- 70
2020-05-01 03:00:00 19.1 15 Nordeste 30 Nordeste 0 -- -- 70
2020-05-01 02:00:00 19.3 15 Nordeste 30 Nordeste 0 -- -- 70
2020-05-01 01:00:00 19.4 16 Nordeste 35 Nordeste 0 -- -- 70
2020-05-01 00:00:00 19.5 21 Nordeste 36 Nordeste 0 -- -- 69
2020-04-30 23:00:00 19.6 19 Nordeste 36 Nordeste 0 -- -- 69
2020-04-30 22:00:00 19.8 19 Nordeste 41 Nordeste 0 -- -- 67
2020-04-30 21:00:00 19.8 26 Nordeste 39 Nordeste 0 -- -- 67
2020-04-30 20:00:00 20.7 23 Norte 44 Norte 0 -- -- 63
2020-04-30 19:00:00 21.5 23 Norte 44 Norte 0 -- -- 62
2020-04-30 18:00:00 22 27 Norte 51 Norte 0 -- -- 61
2020-04-30 17:00:00 21.9 31 Norte 54 Norte 0 -- -- 60
2020-04-30 16:00:00 21.7 34 Norte 50 Norte 0 -- -- 61
2020-04-30 15:00:00 22.8 23 Nordeste 57 Nordeste 0 -- -- 57
2020-04-30 14:00:00 22.2 28 Norte 47 Norte 0 -- -- 57
2020-04-30 13:00:00 21.9 28 Norte 43 Norte 0 -- -- 58
2020-04-30 12:00:00 21.2 27 Norte 42 Norte 0 -- -- 60
2020-04-30 11:00:00 21.2 18 Nordeste 37 Nordeste 0 -- -- 57
2020-04-30 10:00:00 20.3 17 Nordeste 32 Nordeste 0 -- -- 60
2020-04-30 09:00:00 19.3 18 Nordeste 27 Nordeste 0 -- -- 64
2020-04-30 08:00:00 18.4 15 Nordeste 28 Nordeste 0 -- -- 66
2020-04-30 07:00:00 18.7 13 Nordeste 24 Nordeste 0 -- -- 64
2020-04-30 06:00:00 18.1 13 Este 27 Este 0 -- -- 67
2020-04-30 05:00:00 18.3 14 Nordeste 30 Nordeste 0 -- -- 67
2020-04-30 04:00:00 18.4 16 Nordeste 28 Nordeste 0 -- -- 67
2020-04-30 03:00:00 18.7 14 Nordeste 32 Nordeste 0 -- -- 64
2020-04-30 02:00:00 18.8 18 Nordeste 31 Nordeste 0 -- -- 62
2020-04-30 01:00:00 18.7 17 Nordeste 28 Nordeste 0 -- -- 65
2020-04-30 00:00:00 18.9 14 Nordeste 31 Nordeste 0 -- -- 65
2020-04-29 23:00:00 19 15 Nordeste 29 Este 0 -- -- 64
2020-04-29 22:00:00 19.1 15 Nordeste 32 Nordeste 0 -- -- 64
2020-04-29 21:00:00 19.2 19 Nordeste 36 Nordeste 0 -- -- 62
2020-04-29 20:00:00 20 21 Norte 35 Norte 0 -- -- 59
2020-04-29 19:00:00 20.8 23 Norte 43 Norte 0 -- -- 58
2020-04-29 18:00:00 21.5 20 Nordeste 42 Norte 0 -- -- 55
2020-04-29 17:00:00 21.1 29 Norte 46 Norte 0 -- -- 62
2020-04-29 16:00:00 21.5 27 Norte 50 Norte 0 -- -- 57
2020-04-29 15:00:00 21.9 30 Norte 49 Norte 0 -- -- 52
2020-04-29 14:00:00 21.8 24 Nordeste 48 Norte 0 -- -- 51
2020-04-29 13:00:00 21.6 24 Norte 44 Nordeste 0 -- -- 53
2020-04-29 12:00:00 21.1 26 Nordeste 44 Nordeste 0 -- -- 56
2020-04-29 11:00:00 20.8 21 Nordeste 41 Nordeste 0 -- -- 56
2020-04-29 10:00:00 19.9 22 Nordeste 36 Norte 0 -- -- 62
2020-04-29 09:00:00 19.2 17 Nordeste 31 Nordeste 0 -- -- 65
2020-04-29 08:00:00 18.5 17 Nordeste 31 Norte 0 -- -- 69
2020-04-29 07:00:00 18.6 16 Nordeste 29 Norte 0 -- -- 70
2020-04-29 06:00:00 18.7 16 Nordeste 28 Nordeste 0 -- -- 70
2020-04-29 05:00:00 18.7 14 Nordeste 27 Nordeste 0 -- -- 62
2020-04-29 04:00:00 18.9 14 Nordeste 22 Norte 0 -- -- 60
2020-04-29 03:00:00 18.7 11 Nordeste 23 Nordeste 0 -- -- 63
2020-04-29 02:00:00 19 12 Nordeste 29 Nordeste 0 -- -- 68
2020-04-29 01:00:00 19.4 15 Nordeste 30 Norte 0 -- -- 68
2020-04-29 00:00:00 19.5 17 Nordeste 27 Nordeste 0 -- -- 69
2020-04-28 23:00:00 19.4 14 Nordeste 26 Nordeste 0 -- -- 68
2020-04-28 22:00:00 19.7 14 Nordeste 28 Nordeste 0 -- -- 68
2020-04-28 21:00:00 20 14 Nordeste 34 Nordeste 0 -- -- 68
2020-04-28 20:00:00 20.5 18 Nordeste 35 Nordeste 0 -- -- 67
2020-04-28 19:00:00 21.2 22 Norte 33 Norte 0 -- -- 64
2020-04-28 18:00:00 22.2 18 Norte 32 Norte 0 -- -- 57
2020-04-28 17:00:00 21.7 22 Norte 39 Norte 0 -- -- 60
2020-04-28 16:00:00 21.4 27 Norte 33 Norte 0 -- -- 66
2020-04-28 15:00:00 21 29 Norte 39 Norte 0 -- -- 65
2020-04-28 14:00:00 21.3 24 Norte 35 Norte 0 -- -- 63
2020-04-28 13:00:00 21.7 20 Norte 25 Noroeste 0 -- -- 64
2020-04-28 12:00:00 21.1 21 Norte 25 Norte 0 -- -- 63
2020-04-28 11:00:00 21.1 13 Norte 22 Norte 0 -- -- 62
2020-04-28 10:00:00 20 11 Norte 22 Norte 0 -- -- 68
2020-04-28 09:00:00 21.2 7 Nordeste 17 Este 0 -- -- 55
2020-04-28 08:00:00 19.1 8 Sudeste 18 Este 0 -- -- 60
2020-04-28 07:00:00 18.1 11 Este 16 Este 0 -- -- 62
2020-04-28 06:00:00 18.5 4 Nordeste 14 Este 0 -- -- 64
2020-04-28 05:00:00 18.7 8 Este 14 Este 0 -- -- 65
2020-04-28 04:00:00 18.7 7 Este 13 Nordeste 0 -- -- 67
2020-04-28 03:00:00 18.8 8 Nordeste 15 Nordeste 0 -- -- 70
2020-04-28 02:00:00 19.3 8 Nordeste 13 Nordeste 0 -- -- 69
2020-04-28 01:00:00 19.7 9 Nordeste 18 Nordeste 0 -- -- 68
2020-04-28 00:00:00 19.9 9 Norte 17 Norte 0 -- -- 70
2020-04-27 23:00:00 20.4 7 Norte 13 Norte 0 -- -- 69
2020-04-27 22:00:00 20.4 7 Norte 19 Norte 0 -- -- 68
2020-04-27 21:00:00 20.8 9 Norte 19 Norte 0 -- -- 68
2020-04-27 20:00:00 20.7 16 Norte 25 Norte 0 -- -- 71
2020-04-27 19:00:00 21.7 17 Norte 24 Norte 0 -- -- 68
2020-04-27 18:00:00 22.4 12 Norte 17 Norte 0 -- -- 65
2020-04-27 17:00:00 22.2 11 Noroeste 21 Noroeste 0 -- -- 63
2020-04-27 16:00:00 22 14 Noroeste 17 Noroeste 0 -- -- 63
2020-04-27 15:00:00 22.3 10 Noroeste 14 Noroeste 0 -- -- 62
2020-04-27 14:00:00 22.1 6 Noroeste 10 Noroeste 0 -- -- 57
2020-04-27 13:00:00 21.6 8 Noroeste 13 Noroeste 0 -- -- 64
2020-04-27 12:00:00 21.4 10 Noroeste 20 Noroeste 0 -- -- 64
2020-04-27 11:00:00 20.9 13 Noroeste 16 Noroeste 0 -- -- 64
2020-04-27 10:00:00 23.3 4 Sur 9 Este 0 -- -- 46
2020-04-27 09:00:00 21.4 5 Este 20 Este 0 -- -- 34
2020-04-27 08:00:00 18.2 13 Este 20 Este 0 -- -- 42
2020-04-27 07:00:00 17.8 10 Este 18 Este 0 -- -- 44
2020-04-27 06:00:00 17.5 13 Este 18 Este 0 -- -- 46
2020-04-27 05:00:00 18.1 10 Este 17 Este 0 -- -- 45
2020-04-27 04:00:00 17.9 11 Este 17 Este 0 -- -- 54
2020-04-27 03:00:00 18.3 8 Este 15 Este 0 -- -- 58
2020-04-27 02:00:00 18.5 5 Nordeste 13 Este 0 -- -- 63
2020-04-27 01:00:00 19.1 6 Este 18 Este 0 -- -- 58
2020-04-27 00:00:00 19.1 8 Sudeste 15 Este 0 -- -- 66
2020-04-26 23:00:00 18.9 6 Este 12 Este 0 -- -- 66
2020-04-26 22:00:00 19.1 6 Nordeste 20 Norte 0 -- -- 66
2020-04-26 21:00:00 19.4 13 Norte 17 Norte 0 -- -- 68
2020-04-26 20:00:00 20.4 14 Norte 17 Noroeste 0 -- -- 65
2020-04-26 19:00:00 21 15 Norte 26 Noroeste 0 -- -- 63
2020-04-26 18:00:00 21.1 17 Noroeste 21 Norte 0 -- -- 61
2020-04-26 17:00:00 21.7 17 Norte 30 Noroeste 0 -- -- 58
2020-04-26 16:00:00 21.3 19 Norte 27 Norte 0 -- -- 56
2020-04-26 15:00:00 21.1 20 Norte 27 Norte 0 -- -- 59
2020-04-26 14:00:00 21 19 Norte 32 Noroeste 0 -- -- 59
2020-04-26 13:00:00 20.3 22 Norte 27 Noroeste 0 -- -- 63
2020-04-26 12:00:00 19.9 23 Norte 32 Norte 0 -- -- 63
2020-04-26 11:00:00 19.7 22 Norte 28 Norte 0 -- -- 63
2020-04-26 10:00:00 19.8 14 Norte 22 Norte 0 -- -- 59
2020-04-26 09:00:00 -- 0 Calma -- -- 0 -- -- --
2020-04-26 08:00:00 16.9 8 Nordeste 17 Nordeste 0 -- -- 61
2020-04-26 07:00:00 16.7 9 Nordeste 20 Nordeste 0 -- -- 64
2020-04-26 06:00:00 16.9 11 Nordeste 19 Nordeste 0 -- -- 65
2020-04-26 05:00:00 17 9 Nordeste 15 Nordeste 0 -- -- 65
2020-04-26 04:00:00 17.2 9 Nordeste 17 Nordeste 0 -- -- 67
2020-04-26 03:00:00 17.8 7 Nordeste 15 Este 0 -- -- 65
2020-04-26 02:00:00 18.2 8 Nordeste 20 Este 0 -- -- 63
2020-04-26 01:00:00 18.5 8 Nordeste 22 Este 0 -- -- 64
2020-04-26 00:00:00 18.7 11 Nordeste 19 Este 0 -- -- 64